Campbellsburg, Kentucky
Current Conditions -  °F | °C
As of 5:53 PM on Monday 24 Nov 2014 (Local Time) from KFFT Reporting Station
Broken Clouds Broken Clouds  
Wind Chill: 45°   Ceiling: 4000
Heat Index: 45°   Visibility: 10mi
Dew Point: 35°   Wind: 3mph
Humidity: 68%   Direction: 280°W
Pressure: 29.82"   Gusts: NA
Location:  38.52°N, 85.2°W
Report Text: KFFT 242253Z AUTO 28003KT 10SM BKN040 07/02 A2982 RMK AO2 SLP097 T00720017
Loading
Personal Weather Stations






























Interactive Weather Map New forecast layout! Learn more

10-Day Weather Forecast

Advertisements
Track Severe Weather on mobile